sensor_id;sensor_type;location;lat;lon;timestamp;P1;durP1;ratioP1;P2;durP2;ratioP2
75379;SDS011;65641;44.714;37.756;2023-10-13T00:00:53;1.55;;;0.73;;
75379;SDS011;65641;44.714;37.756;2023-10-13T00:02:01;1.27;;;0.65;;
75379;SDS011;65641;44.714;37.756;2023-10-13T00:03:07;1.35;;;0.73;;
75379;SDS011;65641;44.714;37.756;2023-10-13T00:04:21;1.92;;;0.82;;
75379;SDS011;65641;44.714;37.756;2023-10-13T00:05:25;1.45;;;0.70;;
75379;SDS011;65641;44.714;37.756;2023-10-13T00:06:30;1.10;;;0.40;;
75379;SDS011;65641;44.714;37.756;2023-10-13T00:07:33;1.48;;;0.80;;
75379;SDS011;65641;44.714;37.756;2023-10-13T00:08:36;1.88;;;1.23;;
75379;SDS011;65641;44.714;37.756;2023-10-13T00:09:40;1.50;;;0.80;;
75379;SDS011;65641;44.714;37.756;2023-10-13T00:10:45;1.00;;;0.57;;
75379;SDS011;65641;44.714;37.756;2023-10-13T00:11:50;2.05;;;0.77;;
75379;SDS011;65641;44.714;37.756;2023-10-13T00:12:58;1.40;;;0.68;;
75379;SDS011;65641;44.714;37.756;2023-10-13T00:14:12;1.52;;;0.73;;
75379;SDS011;65641;44.714;37.756;2023-10-13T00:15:19;1.63;;;0.70;;
75379;SDS011;65641;44.714;37.756;2023-10-13T00:16:30;1.67;;;0.77;;
75379;SDS011;65641;44.714;37.756;2023-10-13T00:17:37;1.33;;;0.68;;
75379;SDS011;65641;44.714;37.756;2023-10-13T00:18:41;2.28;;;0.93;;
75379;SDS011;65641;44.714;37.756;2023-10-13T00:19:44;1.80;;;1.00;;
75379;SDS011;65641;44.714;37.756;2023-10-13T00:20:49;1.92;;;0.60;;
75379;SDS011;65641;44.714;37.756;2023-10-13T00:21:53;2.00;;;1.25;;
75379;SDS011;65641;44.714;37.756;2023-10-13T00:22:58;1.60;;;0.85;;
75379;SDS011;65641;44.714;37.756;2023-10-13T00:24:02;1.38;;;0.60;;
75379;SDS011;65641;44.714;37.756;2023-10-13T00:25:09;1.58;;;0.68;;
75379;SDS011;65641;44.714;37.756;2023-10-13T00:26:22;2.55;;;1.77;;
75379;SDS011;65641;44.714;37.756;2023-10-13T00:27:33;1.30;;;0.80;;
75379;SDS011;65641;44.714;37.756;2023-10-13T00:28:39;1.35;;;0.45;;
75379;SDS011;65641;44.714;37.756;2023-10-13T00:31:20;2.00;;;0.88;;
75379;SDS011;65641;44.714;37.756;2023-10-13T00:32:24;1.88;;;0.95;;
75379;SDS011;65641;44.714;37.756;2023-10-13T00:33:30;1.77;;;1.25;;
75379;SDS011;65641;44.714;37.756;2023-10-13T00:34:35;2.05;;;0.82;;
75379;SDS011;65641;44.714;37.756;2023-10-13T00:35:42;2.25;;;0.80;;
75379;SDS011;65641;44.714;37.756;2023-10-13T00:36:47;1.50;;;0.70;;
75379;SDS011;65641;44.714;37.756;2023-10-13T00:38:09;1.70;;;0.85;;
75379;SDS011;65641;44.714;37.756;2023-10-13T00:39:15;1.73;;;1.15;;
75379;SDS011;65641;44.714;37.756;2023-10-13T00:40:20;2.22;;;0.90;;
75379;SDS011;65641;44.714;37.756;2023-10-13T00:41:33;1.58;;;1.08;;
75379;SDS011;65641;44.714;37.756;2023-10-13T00:42:55;1.63;;;0.82;;
75379;SDS011;65641;44.714;37.756;2023-10-13T00:44:20;1.50;;;0.73;;
75379;SDS011;65641;44.714;37.756;2023-10-13T00:45:40;1.23;;;0.55;;
75379;SDS011;65641;44.714;37.756;2023-10-13T00:46:44;1.10;;;0.70;;
75379;SDS011;65641;44.714;37.756;2023-10-13T00:47:48;1.20;;;0.52;;
75379;SDS011;65641;44.714;37.756;2023-10-13T00:48:53;1.88;;;0.60;;
75379;SDS011;65641;44.714;37.756;2023-10-13T00:49:57;1.90;;;1.00;;
75379;SDS011;65641;44.714;37.756;2023-10-13T00:51:05;2.35;;;1.42;;
75379;SDS011;65641;44.714;37.756;2023-10-13T00:52:10;1.67;;;0.75;;
75379;SDS011;65641;44.714;37.756;2023-10-13T00:53:15;1.40;;;0.80;;
75379;SDS011;65641;44.714;37.756;2023-10-13T00:54:18;1.75;;;1.10;;
75379;SDS011;65641;44.714;37.756;2023-10-13T00:55:29;1.65;;;0.90;;
75379;SDS011;65641;44.714;37.756;2023-10-13T00:56:39;1.48;;;0.77;;
75379;SDS011;65641;44.714;37.756;2023-10-13T00:57:51;1.33;;;0.82;;
75379;SDS011;65641;44.714;37.756;2023-10-13T00:58:58;1.63;;;1.00;;
75379;SDS011;65641;44.714;37.756;2023-10-13T01:00:05;1.92;;;0.82;;
75379;SDS011;65641;44.714;37.756;2023-10-13T01:01:22;2.15;;;1.60;;
75379;SDS011;65641;44.714;37.756;2023-10-13T01:02:30;1.50;;;0.77;;
75379;SDS011;65641;44.714;37.756;2023-10-13T01:03:44;1.75;;;0.95;;
75379;SDS011;65641;44.714;37.756;2023-10-13T01:04:51;1.90;;;0.90;;
75379;SDS011;65641;44.714;37.756;2023-10-13T01:05:57;1.30;;;0.85;;
75379;SDS011;65641;44.714;37.756;2023-10-13T01:07:06;1.65;;;0.93;;
75379;SDS011;65641;44.714;37.756;2023-10-13T01:08:10;2.45;;;1.75;;
75379;SDS011;65641;44.714;37.756;2023-10-13T01:09:15;1.20;;;0.60;;
75379;SDS011;65641;44.714;37.756;2023-10-13T01:10:22;1.40;;;0.77;;
75379;SDS011;65641;44.714;37.756;2023-10-13T01:11:36;1.52;;;0.70;;
75379;SDS011;65641;44.714;37.756;2023-10-13T01:12:41;1.40;;;0.57;;
75379;SDS011;65641;44.714;37.756;2023-10-13T01:13:46;1.45;;;0.80;;
75379;SDS011;65641;44.714;37.756;2023-10-13T01:14:54;1.05;;;0.55;;
75379;SDS011;65641;44.714;37.756;2023-10-13T01:16:02;1.80;;;0.65;;
75379;SDS011;65641;44.714;37.756;2023-10-13T01:17:08;1.77;;;1.02;;
75379;SDS011;65641;44.714;37.756;2023-10-13T01:18:12;1.27;;;0.93;;
75379;SDS011;65641;44.714;37.756;2023-10-13T01:19:19;1.65;;;0.75;;
75379;SDS011;65641;44.714;37.756;2023-10-13T01:20:28;1.13;;;0.60;;
75379;SDS011;65641;44.714;37.756;2023-10-13T01:21:31;2.08;;;1.02;;
75379;SDS011;65641;44.714;37.756;2023-10-13T01:22:36;2.30;;;0.63;;
75379;SDS011;65641;44.714;37.756;2023-10-13T01:23:43;1.70;;;0.77;;
75379;SDS011;65641;44.714;37.756;2023-10-13T01:24:48;1.90;;;0.60;;
75379;SDS011;65641;44.714;37.756;2023-10-13T01:25:52;1.75;;;1.30;;
75379;SDS011;65641;44.714;37.756;2023-10-13T01:26:57;1.73;;;0.75;;
75379;SDS011;65641;44.714;37.756;2023-10-13T01:28:06;1.60;;;0.70;;
75379;SDS011;65641;44.714;37.756;2023-10-13T01:29:10;1.65;;;0.85;;
75379;SDS011;65641;44.714;37.756;2023-10-13T01:30:17;1.65;;;0.57;;
75379;SDS011;65641;44.714;37.756;2023-10-13T01:31:26;1.92;;;0.93;;
75379;SDS011;65641;44.714;37.756;2023-10-13T01:32:35;1.00;;;0.57;;
75379;SDS011;65641;44.714;37.756;2023-10-13T01:33:52;1.83;;;0.65;;
75379;SDS011;65641;44.714;37.756;2023-10-13T01:34:58;1.92;;;1.02;;
75379;SDS011;65641;44.714;37.756;2023-10-13T01:36:09;1.73;;;0.82;;
75379;SDS011;65641;44.714;37.756;2023-10-13T01:37:15;1.23;;;0.60;;
75379;SDS011;65641;44.714;37.756;2023-10-13T01:38:19;1.33;;;0.80;;
75379;SDS011;65641;44.714;37.756;2023-10-13T01:39:23;1.67;;;0.73;;
75379;SDS011;65641;44.714;37.756;2023-10-13T01:40:31;1.80;;;0.68;;
75379;SDS011;65641;44.714;37.756;2023-10-13T01:41:37;1.35;;;0.95;;
75379;SDS011;65641;44.714;37.756;2023-10-13T01:42:42;1.10;;;0.88;;
75379;SDS011;65641;44.714;37.756;2023-10-13T01:43:48;2.20;;;0.95;;
75379;SDS011;65641;44.714;37.756;2023-10-13T01:44:52;1.98;;;1.10;;
75379;SDS011;65641;44.714;37.756;2023-10-13T01:46:01;1.13;;;0.77;;
75379;SDS011;65641;44.714;37.756;2023-10-13T01:47:06;0.93;;;0.68;;
75379;SDS011;65641;44.714;37.756;2023-10-13T01:49:21;2.50;;;0.75;;
75379;SDS011;65641;44.714;37.756;2023-10-13T01:50:26;2.08;;;1.00;;
75379;SDS011;65641;44.714;37.756;2023-10-13T01:51:33;1.40;;;0.50;;
75379;SDS011;65641;44.714;37.756;2023-10-13T01:52:38;1.88;;;1.20;;
75379;SDS011;65641;44.714;37.756;2023-10-13T01:53:45;1.10;;;0.70;;
75379;SDS011;65641;44.714;37.756;2023-10-13T01:54:56;1.63;;;0.85;;
75379;SDS011;65641;44.714;37.756;2023-10-13T01:56:04;1.60;;;1.20;;
75379;SDS011;65641;44.714;37.756;2023-10-13T01:57:17;2.20;;;1.00;;
75379;SDS011;65641;44.714;37.756;2023-10-13T01:58:21;2.28;;;0.77;;
75379;SDS011;65641;44.714;37.756;2023-10-13T01:59:28;1.10;;;0.65;;
75379;SDS011;65641;44.714;37.756;2023-10-13T02:00:33;1.38;;;0.68;;
75379;SDS011;65641;44.714;37.756;2023-10-13T02:01:43;1.08;;;0.70;;
75379;SDS011;65641;44.714;37.756;2023-10-13T02:02:47;1.35;;;0.90;;
75379;SDS011;65641;44.714;37.756;2023-10-13T02:03:57;1.60;;;0.47;;
75379;SDS011;65641;44.714;37.756;2023-10-13T02:05:05;1.75;;;1.15;;
75379;SDS011;65641;44.714;37.756;2023-10-13T02:06:09;1.48;;;0.88;;
75379;SDS011;65641;44.714;37.756;2023-10-13T02:07:14;1.27;;;0.65;;
75379;SDS011;65641;44.714;37.756;2023-10-13T02:08:19;1.67;;;0.98;;
75379;SDS011;65641;44.714;37.756;2023-10-13T02:09:27;1.17;;;0.63;;
75379;SDS011;65641;44.714;37.756;2023-10-13T02:10:32;1.38;;;0.70;;
75379;SDS011;65641;44.714;37.756;2023-10-13T02:11:37;1.27;;;0.57;;
75379;SDS011;65641;44.714;37.756;2023-10-13T02:12:41;1.70;;;1.17;;
75379;SDS011;65641;44.714;37.756;2023-10-13T02:13:50;1.00;;;0.50;;
75379;SDS011;65641;44.714;37.756;2023-10-13T02:14:56;2.53;;;0.45;;
75379;SDS011;65641;44.714;37.756;2023-10-13T02:17:08;1.38;;;0.90;;
75379;SDS011;65641;44.714;37.756;2023-10-13T02:18:19;1.45;;;0.88;;
75379;SDS011;65641;44.714;37.756;2023-10-13T02:19:29;1.50;;;0.63;;
75379;SDS011;65641;44.714;37.756;2023-10-13T02:20:53;1.83;;;0.75;;
75379;SDS011;65641;44.714;37.756;2023-10-13T02:21:57;1.40;;;0.82;;
75379;SDS011;65641;44.714;37.756;2023-10-13T02:23:06;1.30;;;0.50;;
75379;SDS011;65641;44.714;37.756;2023-10-13T02:24:15;1.77;;;0.90;;
75379;SDS011;65641;44.714;37.756;2023-10-13T02:25:21;1.48;;;0.70;;
75379;SDS011;65641;44.714;37.756;2023-10-13T02:26:45;1.50;;;0.73;;
75379;SDS011;65641;44.714;37.756;2023-10-13T02:27:48;1.25;;;0.65;;
75379;SDS011;65641;44.714;37.756;2023-10-13T02:29:01;1.42;;;0.75;;
75379;SDS011;65641;44.714;37.756;2023-10-13T02:30:09;1.77;;;1.05;;
75379;SDS011;65641;44.714;37.756;2023-10-13T02:31:17;1.60;;;0.60;;
75379;SDS011;65641;44.714;37.756;2023-10-13T02:32:22;1.30;;;0.90;;
75379;SDS011;65641;44.714;37.756;2023-10-13T02:33:30;1.45;;;0.60;;
75379;SDS011;65641;44.714;37.756;2023-10-13T02:34:34;1.95;;;1.42;;
75379;SDS011;65641;44.714;37.756;2023-10-13T02:35:38;2.08;;;0.98;;
75379;SDS011;65641;44.714;37.756;2023-10-13T02:36:46;1.52;;;0.60;;
75379;SDS011;65641;44.714;37.756;2023-10-13T02:37:52;1.73;;;0.82;;
75379;SDS011;65641;44.714;37.756;2023-10-13T02:39:04;1.45;;;0.70;;
75379;SDS011;65641;44.714;37.756;2023-10-13T02:40:11;2.08;;;0.90;;
75379;SDS011;65641;44.714;37.756;2023-10-13T02:41:16;1.50;;;1.40;;
75379;SDS011;65641;44.714;37.756;2023-10-13T02:42:30;1.80;;;0.70;;
75379;SDS011;65641;44.714;37.756;2023-10-13T02:43:34;1.90;;;0.75;;
75379;SDS011;65641;44.714;37.756;2023-10-13T02:44:41;1.67;;;1.02;;
75379;SDS011;65641;44.714;37.756;2023-10-13T02:45:51;1.98;;;0.88;;
75379;SDS011;65641;44.714;37.756;2023-10-13T02:47:04;1.17;;;0.73;;
75379;SDS011;65641;44.714;37.756;2023-10-13T02:48:16;1.45;;;0.90;;
75379;SDS011;65641;44.714;37.756;2023-10-13T02:49:21;1.73;;;0.85;;
75379;SDS011;65641;44.714;37.756;2023-10-13T02:50:25;1.52;;;0.80;;
75379;SDS011;65641;44.714;37.756;2023-10-13T02:51:29;2.05;;;0.70;;
75379;SDS011;65641;44.714;37.756;2023-10-13T02:52:39;1.95;;;1.45;;
75379;SDS011;65641;44.714;37.756;2023-10-13T02:53:45;1.20;;;0.77;;
75379;SDS011;65641;44.714;37.756;2023-10-13T02:54:52;2.20;;;0.70;;
75379;SDS011;65641;44.714;37.756;2023-10-13T02:55:56;2.00;;;0.93;;
75379;SDS011;65641;44.714;37.756;2023-10-13T02:57:08;1.88;;;0.93;;
75379;SDS011;65641;44.714;37.756;2023-10-13T02:58:11;1.92;;;0.57;;
75379;SDS011;65641;44.714;37.756;2023-10-13T02:59:17;1.45;;;0.77;;
75379;SDS011;65641;44.714;37.756;2023-10-13T03:00:39;1.48;;;0.55;;
75379;SDS011;65641;44.714;37.756;2023-10-13T03:01:43;1.52;;;0.60;;
75379;SDS011;65641;44.714;37.756;2023-10-13T03:02:47;1.83;;;0.95;;
75379;SDS011;65641;44.714;37.756;2023-10-13T03:04:03;1.80;;;1.17;;
75379;SDS011;65641;44.714;37.756;2023-10-13T03:05:11;1.90;;;1.05;;
75379;SDS011;65641;44.714;37.756;2023-10-13T03:06:16;1.92;;;0.95;;
75379;SDS011;65641;44.714;37.756;2023-10-13T03:07:27;1.35;;;0.60;;
75379;SDS011;65641;44.714;37.756;2023-10-13T03:08:32;1.95;;;1.00;;
75379;SDS011;65641;44.714;37.756;2023-10-13T03:09:35;1.42;;;0.90;;
75379;SDS011;65641;44.714;37.756;2023-10-13T03:10:40;1.73;;;0.77;;
75379;SDS011;65641;44.714;37.756;2023-10-13T03:11:50;2.10;;;0.77;;
75379;SDS011;65641;44.714;37.756;2023-10-13T03:12:54;1.80;;;0.82;;
75379;SDS011;65641;44.714;37.756;2023-10-13T03:13:58;1.58;;;1.10;;
75379;SDS011;65641;44.714;37.756;2023-10-13T03:15:02;1.35;;;1.08;;
75379;SDS011;65641;44.714;37.756;2023-10-13T03:16:19;1.75;;;0.80;;
75379;SDS011;65641;44.714;37.756;2023-10-13T03:17:25;1.25;;;0.70;;
75379;SDS011;65641;44.714;37.756;2023-10-13T03:18:38;2.28;;;1.10;;
75379;SDS011;65641;44.714;37.756;2023-10-13T03:19:43;1.00;;;0.77;;
75379;SDS011;65641;44.714;37.756;2023-10-13T03:20:53;1.60;;;0.80;;
75379;SDS011;65641;44.714;37.756;2023-10-13T03:22:02;2.33;;;0.90;;
75379;SDS011;65641;44.714;37.756;2023-10-13T03:23:16;1.77;;;1.00;;
75379;SDS011;65641;44.714;37.756;2023-10-13T03:24:19;0.95;;;0.50;;
75379;SDS011;65641;44.714;37.756;2023-10-13T03:25:26;1.77;;;0.73;;
75379;SDS011;65641;44.714;37.756;2023-10-13T03:26:32;1.40;;;0.93;;
75379;SDS011;65641;44.714;37.756;2023-10-13T03:27:39;1.55;;;0.65;;
75379;SDS011;65641;44.714;37.756;2023-10-13T03:28:51;2.05;;;0.70;;
75379;SDS011;65641;44.714;37.756;2023-10-13T03:29:55;1.63;;;0.90;;
75379;SDS011;65641;44.714;37.756;2023-10-13T03:30:58;1.70;;;0.60;;
75379;SDS011;65641;44.714;37.756;2023-10-13T03:32:04;1.90;;;0.77;;
75379;SDS011;65641;44.714;37.756;2023-10-13T03:33:14;2.67;;;0.82;;
75379;SDS011;65641;44.714;37.756;2023-10-13T03:34:28;1.92;;;0.73;;
75379;SDS011;65641;44.714;37.756;2023-10-13T03:35:33;1.38;;;0.73;;
75379;SDS011;65641;44.714;37.756;2023-10-13T03:36:47;1.23;;;0.60;;
75379;SDS011;65641;44.714;37.756;2023-10-13T03:37:59;1.50;;;0.85;;
75379;SDS011;65641;44.714;37.756;2023-10-13T03:39:04;1.88;;;0.80;;
75379;SDS011;65641;44.714;37.756;2023-10-13T03:40:11;1.25;;;0.70;;
75379;SDS011;65641;44.714;37.756;2023-10-13T03:41:26;1.90;;;0.65;;
75379;SDS011;65641;44.714;37.756;2023-10-13T03:42:33;1.75;;;0.63;;
75379;SDS011;65641;44.714;37.756;2023-10-13T03:43:36;4.00;;;1.42;;
75379;SDS011;65641;44.714;37.756;2023-10-13T03:44:48;2.10;;;0.70;;
75379;SDS011;65641;44.714;37.756;2023-10-13T03:45:52;2.45;;;0.90;;
75379;SDS011;65641;44.714;37.756;2023-10-13T03:47:04;1.98;;;1.13;;
75379;SDS011;65641;44.714;37.756;2023-10-13T03:48:20;2.03;;;0.90;;
75379;SDS011;65641;44.714;37.756;2023-10-13T03:49:29;2.85;;;0.95;;
75379;SDS011;65641;44.714;37.756;2023-10-13T03:50:33;2.72;;;2.10;;
75379;SDS011;65641;44.714;37.756;2023-10-13T03:51:39;2.63;;;1.10;;
75379;SDS011;65641;44.714;37.756;2023-10-13T03:52:43;2.95;;;1.10;;
75379;SDS011;65641;44.714;37.756;2023-10-13T03:53:47;3.08;;;0.98;;
75379;SDS011;65641;44.714;37.756;2023-10-13T03:54:57;3.17;;;1.25;;
75379;SDS011;65641;44.714;37.756;2023-10-13T03:56:01;3.78;;;0.98;;
75379;SDS011;65641;44.714;37.756;2023-10-13T03:57:12;3.25;;;1.05;;
75379;SDS011;65641;44.714;37.756;2023-10-13T03:58:15;2.17;;;1.00;;
75379;SDS011;65641;44.714;37.756;2023-10-13T03:59:20;4.45;;;1.35;;
75379;SDS011;65641;44.714;37.756;2023-10-13T04:00:23;3.38;;;1.17;;
75379;SDS011;65641;44.714;37.756;2023-10-13T04:01:27;2.70;;;1.00;;
75379;SDS011;65641;44.714;37.756;2023-10-13T04:02:50;4.30;;;1.45;;
75379;SDS011;65641;44.714;37.756;2023-10-13T04:04:06;5.18;;;1.50;;
75379;SDS011;65641;44.714;37.756;2023-10-13T04:05:17;4.25;;;1.45;;
75379;SDS011;65641;44.714;37.756;2023-10-13T04:06:38;2.72;;;1.20;;
75379;SDS011;65641;44.714;37.756;2023-10-13T04:07:54;3.10;;;1.35;;
75379;SDS011;65641;44.714;37.756;2023-10-13T04:09:22;5.63;;;1.27;;
75379;SDS011;65641;44.714;37.756;2023-10-13T04:10:34;5.10;;;1.48;;
75379;SDS011;65641;44.714;37.756;2023-10-13T04:11:43;4.13;;;1.50;;
75379;SDS011;65641;44.714;37.756;2023-10-13T04:13:06;3.25;;;1.63;;
75379;SDS011;65641;44.714;37.756;2023-10-13T04:14:41;3.78;;;1.20;;
75379;SDS011;65641;44.714;37.756;2023-10-13T04:16:07;3.10;;;1.42;;
75379;SDS011;65641;44.714;37.756;2023-10-13T04:17:20;3.05;;;1.30;;
75379;SDS011;65641;44.714;37.756;2023-10-13T04:18:30;3.05;;;1.45;;
75379;SDS011;65641;44.714;37.756;2023-10-13T04:19:53;2.63;;;1.50;;
75379;SDS011;65641;44.714;37.756;2023-10-13T04:21:10;4.30;;;1.35;;
75379;SDS011;65641;44.714;37.756;2023-10-13T04:22:36;2.60;;;1.13;;
75379;SDS011;65641;44.714;37.756;2023-10-13T04:23:53;5.57;;;1.45;;
75379;SDS011;65641;44.714;37.756;2023-10-13T04:26:39;5.50;;;1.70;;
75379;SDS011;65641;44.714;37.756;2023-10-13T04:28:07;4.53;;;1.20;;
75379;SDS011;65641;44.714;37.756;2023-10-13T04:29:20;3.05;;;1.48;;
75379;SDS011;65641;44.714;37.756;2023-10-13T04:32:00;4.00;;;1.52;;
75379;SDS011;65641;44.714;37.756;2023-10-13T04:33:05;3.75;;;1.48;;
75379;SDS011;65641;44.714;37.756;2023-10-13T04:34:20;5.07;;;1.55;;
75379;SDS011;65641;44.714;37.756;2023-10-13T04:35:31;4.05;;;1.13;;
75379;SDS011;65641;44.714;37.756;2023-10-13T04:36:39;2.92;;;1.23;;
75379;SDS011;65641;44.714;37.756;2023-10-13T04:37:48;4.18;;;1.13;;
75379;SDS011;65641;44.714;37.756;2023-10-13T04:38:55;3.65;;;2.05;;
75379;SDS011;65641;44.714;37.756;2023-10-13T04:40:03;4.82;;;1.38;;
75379;SDS011;65641;44.714;37.756;2023-10-13T04:41:13;4.13;;;1.50;;
75379;SDS011;65641;44.714;37.756;2023-10-13T04:42:25;3.75;;;1.33;;
75379;SDS011;65641;44.714;37.756;2023-10-13T04:43:42;3.92;;;1.50;;
75379;SDS011;65641;44.714;37.756;2023-10-13T04:45:09;5.43;;;1.73;;
75379;SDS011;65641;44.714;37.756;2023-10-13T04:46:39;5.90;;;1.35;;
75379;SDS011;65641;44.714;37.756;2023-10-13T04:47:48;3.20;;;1.83;;
75379;SDS011;65641;44.714;37.756;2023-10-13T04:49:00;5.05;;;1.48;;
75379;SDS011;65641;44.714;37.756;2023-10-13T04:50:13;3.88;;;1.30;;
75379;SDS011;65641;44.714;37.756;2023-10-13T04:51:30;3.80;;;1.50;;
75379;SDS011;65641;44.714;37.756;2023-10-13T04:52:52;3.75;;;1.58;;
75379;SDS011;65641;44.714;37.756;2023-10-13T04:54:05;2.42;;;1.10;;
75379;SDS011;65641;44.714;37.756;2023-10-13T04:55:28;4.68;;;1.52;;
75379;SDS011;65641;44.714;37.756;2023-10-13T04:56:51;4.50;;;1.60;;
75379;SDS011;65641;44.714;37.756;2023-10-13T04:58:13;2.97;;;1.30;;
75379;SDS011;65641;44.714;37.756;2023-10-13T04:59:39;4.40;;;1.58;;
75379;SDS011;65641;44.714;37.756;2023-10-13T05:01:01;4.57;;;1.52;;
75379;SDS011;65641;44.714;37.756;2023-10-13T05:02:24;7.05;;;1.80;;
75379;SDS011;65641;44.714;37.756;2023-10-13T05:03:43;4.65;;;1.60;;
75379;SDS011;65641;44.714;37.756;2023-10-13T05:05:09;3.60;;;1.42;;
75379;SDS011;65641;44.714;37.756;2023-10-13T05:06:28;3.58;;;1.70;;
75379;SDS011;65641;44.714;37.756;2023-10-13T05:07:46;3.72;;;1.65;;
75379;SDS011;65641;44.714;37.756;2023-10-13T05:09:09;4.55;;;1.40;;
75379;SDS011;65641;44.714;37.756;2023-10-13T05:10:33;5.53;;;1.60;;
75379;SDS011;65641;44.714;37.756;2023-10-13T05:11:56;5.65;;;2.03;;
75379;SDS011;65641;44.714;37.756;2023-10-13T05:13:18;4.20;;;1.90;;
75379;SDS011;65641;44.714;37.756;2023-10-13T05:14:40;3.85;;;2.03;;
75379;SDS011;65641;44.714;37.756;2023-10-13T05:16:01;4.88;;;1.25;;
75379;SDS011;65641;44.714;37.756;2023-10-13T05:17:24;4.43;;;1.90;;
75379;SDS011;65641;44.714;37.756;2023-10-13T05:18:45;3.13;;;1.75;;
75379;SDS011;65641;44.714;37.756;2023-10-13T05:20:08;3.97;;;1.60;;
75379;SDS011;65641;44.714;37.756;2023-10-13T05:21:30;5.70;;;1.60;;
75379;SDS011;65641;44.714;37.756;2023-10-13T05:22:51;4.05;;;1.60;;
75379;SDS011;65641;44.714;37.756;2023-10-13T05:24:13;5.15;;;1.80;;
75379;SDS011;65641;44.714;37.756;2023-10-13T05:25:35;4.88;;;1.60;;
75379;SDS011;65641;44.714;37.756;2023-10-13T05:26:58;5.38;;;2.13;;
75379;SDS011;65641;44.714;37.756;2023-10-13T05:28:20;3.75;;;1.55;;
75379;SDS011;65641;44.714;37.756;2023-10-13T05:29:43;3.85;;;2.00;;
75379;SDS011;65641;44.714;37.756;2023-10-13T05:31:10;3.80;;;1.58;;
75379;SDS011;65641;44.714;37.756;2023-10-13T05:32:32;3.28;;;1.40;;
75379;SDS011;65641;44.714;37.756;2023-10-13T05:33:55;5.20;;;1.70;;
75379;SDS011;65641;44.714;37.756;2023-10-13T05:35:19;4.07;;;1.48;;
75379;SDS011;65641;44.714;37.756;2023-10-13T05:36:42;3.75;;;1.50;;
75379;SDS011;65641;44.714;37.756;2023-10-13T05:38:03;5.00;;;1.98;;
75379;SDS011;65641;44.714;37.756;2023-10-13T05:39:26;4.35;;;1.52;;
75379;SDS011;65641;44.714;37.756;2023-10-13T05:40:51;5.65;;;1.33;;
75379;SDS011;65641;44.714;37.756;2023-10-13T05:42:23;4.07;;;1.77;;
75379;SDS011;65641;44.714;37.756;2023-10-13T05:43:44;3.28;;;1.33;;
75379;SDS011;65641;44.714;37.756;2023-10-13T05:45:06;4.32;;;2.08;;
75379;SDS011;65641;44.714;37.756;2023-10-13T05:46:19;4.30;;;1.65;;
75379;SDS011;65641;44.714;37.756;2023-10-13T05:47:28;5.80;;;2.03;;
75379;SDS011;65641;44.714;37.756;2023-10-13T05:48:43;4.90;;;2.20;;
75379;SDS011;65641;44.714;37.756;2023-10-13T05:50:07;4.63;;;1.75;;
75379;SDS011;65641;44.714;37.756;2023-10-13T05:51:37;5.90;;;1.92;;
75379;SDS011;65641;44.714;37.756;2023-10-13T05:53:59;5.45;;;1.95;;
75379;SDS011;65641;44.714;37.756;2023-10-13T05:55:20;7.20;;;2.13;;
75379;SDS011;65641;44.714;37.756;2023-10-13T05:56:44;3.88;;;2.10;;
75379;SDS011;65641;44.714;37.756;2023-10-13T05:58:07;4.15;;;2.00;;
75379;SDS011;65641;44.714;37.756;2023-10-13T05:59:29;5.70;;;1.70;;
75379;SDS011;65641;44.714;37.756;2023-10-13T06:00:53;4.70;;;1.80;;
75379;SDS011;65641;44.714;37.756;2023-10-13T06:02:16;3.20;;;1.60;;
75379;SDS011;65641;44.714;37.756;2023-10-13T06:03:39;3.55;;;1.50;;
75379;SDS011;65641;44.714;37.756;2023-10-13T06:05:04;2.58;;;1.60;;
75379;SDS011;65641;44.714;37.756;2023-10-13T06:06:27;3.90;;;1.75;;
75379;SDS011;65641;44.714;37.756;2023-10-13T06:07:49;4.13;;;1.88;;
75379;SDS011;65641;44.714;37.756;2023-10-13T06:09:11;4.00;;;2.10;;
75379;SDS011;65641;44.714;37.756;2023-10-13T06:10:33;3.25;;;1.50;;
75379;SDS011;65641;44.714;37.756;2023-10-13T06:11:55;4.60;;;2.05;;
75379;SDS011;65641;44.714;37.756;2023-10-13T06:13:17;5.05;;;2.30;;
75379;SDS011;65641;44.714;37.756;2023-10-13T06:14:40;3.55;;;1.40;;
75379;SDS011;65641;44.714;37.756;2023-10-13T06:16:08;4.45;;;1.65;;
75379;SDS011;65641;44.714;37.756;2023-10-13T06:17:32;3.15;;;1.90;;
75379;SDS011;65641;44.714;37.756;2023-10-13T06:18:54;4.05;;;1.55;;
75379;SDS011;65641;44.714;37.756;2023-10-13T06:20:16;4.82;;;1.83;;
75379;SDS011;65641;44.714;37.756;2023-10-13T06:21:38;3.47;;;1.63;;
75379;SDS011;65641;44.714;37.756;2023-10-13T06:23:01;3.55;;;1.63;;
75379;SDS011;65641;44.714;37.756;2023-10-13T06:24:23;3.55;;;1.63;;
75379;SDS011;65641;44.714;37.756;2023-10-13T06:25:51;4.13;;;1.67;;
75379;SDS011;65641;44.714;37.756;2023-10-13T06:27:15;3.67;;;1.92;;
75379;SDS011;65641;44.714;37.756;2023-10-13T06:28:38;4.35;;;1.52;;
75379;SDS011;65641;44.714;37.756;2023-10-13T06:29:44;3.60;;;1.60;;
75379;SDS011;65641;44.714;37.756;2023-10-13T06:30:58;4.07;;;1.88;;
75379;SDS011;65641;44.714;37.756;2023-10-13T06:32:04;4.38;;;2.05;;
75379;SDS011;65641;44.714;37.756;2023-10-13T06:33:16;4.63;;;1.73;;
75379;SDS011;65641;44.714;37.756;2023-10-13T06:34:20;3.05;;;1.27;;
75379;SDS011;65641;44.714;37.756;2023-10-13T06:35:31;3.72;;;1.75;;
75379;SDS011;65641;44.714;37.756;2023-10-13T06:36:34;4.75;;;1.92;;
75379;SDS011;65641;44.714;37.756;2023-10-13T06:37:38;4.47;;;1.92;;
75379;SDS011;65641;44.714;37.756;2023-10-13T06:38:45;5.10;;;1.98;;
75379;SDS011;65641;44.714;37.756;2023-10-13T06:40:03;4.22;;;1.58;;
75379;SDS011;65641;44.714;37.756;2023-10-13T06:41:31;2.88;;;1.73;;
75379;SDS011;65641;44.714;37.756;2023-10-13T06:42:43;3.03;;;1.95;;
75379;SDS011;65641;44.714;37.756;2023-10-13T06:43:47;4.05;;;2.47;;
75379;SDS011;65641;44.714;37.756;2023-10-13T06:45:03;4.78;;;2.00;;
75379;SDS011;65641;44.714;37.756;2023-10-13T06:46:19;3.22;;;2.35;;
75379;SDS011;65641;44.714;37.756;2023-10-13T06:47:26;3.83;;;1.63;;
75379;SDS011;65641;44.714;37.756;2023-10-13T06:48:30;4.15;;;1.38;;
75379;SDS011;65641;44.714;37.756;2023-10-13T06:49:39;4.22;;;1.58;;
75379;SDS011;65641;44.714;37.756;2023-10-13T06:50:49;3.88;;;1.77;;
75379;SDS011;65641;44.714;37.756;2023-10-13T06:51:55;3.47;;;1.55;;
75379;SDS011;65641;44.714;37.756;2023-10-13T06:53:03;3.17;;;1.35;;
75379;SDS011;65641;44.714;37.756;2023-10-13T06:54:07;5.22;;;1.90;;
75379;SDS011;65641;44.714;37.756;2023-10-13T06:55:22;5.18;;;2.10;;
75379;SDS011;65641;44.714;37.756;2023-10-13T06:56:30;3.53;;;1.33;;
75379;SDS011;65641;44.714;37.756;2023-10-13T06:57:34;3.30;;;1.50;;
75379;SDS011;65641;44.714;37.756;2023-10-13T06:58:38;4.65;;;1.77;;
75379;SDS011;65641;44.714;37.756;2023-10-13T06:59:48;3.88;;;1.95;;
75379;SDS011;65641;44.714;37.756;2023-10-13T07:00:54;4.65;;;2.08;;
75379;SDS011;65641;44.714;37.756;2023-10-13T07:01:58;2.95;;;1.40;;
75379;SDS011;65641;44.714;37.756;2023-10-13T07:03:28;4.57;;;1.73;;
75379;SDS011;65641;44.714;37.756;2023-10-13T07:04:32;3.47;;;2.03;;
75379;SDS011;65641;44.714;37.756;2023-10-13T07:05:36;4.57;;;2.03;;
75379;SDS011;65641;44.714;37.756;2023-10-13T07:06:41;4.03;;;1.30;;
75379;SDS011;65641;44.714;37.756;2023-10-13T07:07:51;3.45;;;1.80;;
75379;SDS011;65641;44.714;37.756;2023-10-13T07:09:02;3.35;;;1.48;;
75379;SDS011;65641;44.714;37.756;2023-10-13T07:10:08;3.20;;;1.45;;
75379;SDS011;65641;44.714;37.756;2023-10-13T07:11:14;4.18;;;1.45;;
75379;SDS011;65641;44.714;37.756;2023-10-13T07:12:22;3.72;;;1.92;;